Terminal Aerodrome Forecast
Issued by NWS Louisville, KY

Home | Current Version | Previous Version | Text Only | Print | Product List | Glossary On
Versions: 1 2 3 4 5 6 7 8 9 10 11 12 13
442
FTUS43 KLMK 160532
TAFSDF
TAF
KSDF 160532Z 1606/1712 20005KT P6SM BKN060
     FM160900 VRB03KT P6SM FEW200
     FM161500 21015G22KT P6SM FEW100
     FM162200 20012KT P6SM SKC=

USA.gov is the U.S. government's official web portal to all federal, state and local government web resources and services.